Time;durP1;ratioP1;P1;durP2;ratioP2;P2;SDS_P1;SDS_P2;PMS_P1;PMS_P2;Temp;Humidity;BMP_temperature;BMP_pressure;BME280_temperature;BME280_humidity;BME280_pressure;Samples;Min_cycle;Max_cycle;Signal;HPM_P1;HPM_P2
2022/07/25 00:00:37;;;;;;;7.90;4.10;;;;;;;;;;104953;1302;22536;-27
2022/07/25 00:03:06;;;;;;;5.70;2.90;;;;;;;;;;104935;1302;25282;-23
2022/07/25 00:05:34;;;;;;;5.20;2.50;;;;;;;;;;104986;1309;25245;-25
2022/07/25 00:08:03;;;;;;;6.80;2.60;;;;;;;;;;104869;1305;25332;-25
2022/07/25 00:10:32;;;;;;;4.00;1.60;;;;;;;;;;104992;1308;25184;-25
2022/07/25 00:13:01;;;;;;;6.80;2.50;;;;;;;;;;104935;1302;25330;-28
2022/07/25 00:15:30;;;;;;;5.20;2.50;;;;;;;;;;104978;1308;22532;-28
2022/07/25 00:17:59;;;;;;;2.50;2.00;;;;;;;;;;105030;1302;22560;-24
2022/07/25 00:20:27;;;;;;;3.40;1.90;;;;;;;;;;104921;1309;25248;-25
2022/07/25 00:22:56;;;;;;;1.30;1.20;;;;;;;;;;104955;1303;25309;-23
2022/07/25 00:25:25;;;;;;;3.20;1.50;;;;;;;;;;104897;1309;24665;-24
2022/07/25 00:27:54;;;;;;;4.70;1.90;;;;;;;;;;104975;1309;25203;-27
2022/07/25 00:30:23;;;;;;;8.80;3.60;;;;;;;;;;104969;1309;22520;-29
2022/07/25 00:32:52;;;;;;;7.40;4.40;;;;;;;;;;104897;1309;22541;-24
2022/07/25 00:35:21;;;;;;;11.00;4.00;;;;;;;;;;104947;1302;22568;-24
2022/07/25 00:37:49;;;;;;;2.80;2.10;;;;;;;;;;104967;1302;25454;-29
2022/07/25 00:40:18;;;;;;;5.60;2.80;;;;;;;;;;104753;1302;25270;-28
2022/07/25 00:42:47;;;;;;;3.30;2.90;;;;;;;;;;104775;1302;25264;-24
2022/07/25 00:45:16;;;;;;;4.50;2.40;;;;;;;;;;105013;1308;22551;-28
2022/07/25 00:47:45;;;;;;;5.80;2.60;;;;;;;;;;104786;1302;24343;-28
2022/07/25 00:50:13;;;;;;;14.90;5.50;;;;;;;;;;104947;1309;24238;-23
2022/07/25 00:52:43;;;;;;;8.40;5.60;;;;;;;;;;104813;1305;25260;-28
2022/07/25 00:55:12;;;;;;;5.40;3.60;;;;;;;;;;104913;1308;25366;-27
2022/07/25 00:57:40;;;;;;;21.90;3.00;;;;;;;;;;104918;1302;25177;-30
2022/07/25 01:00:11;;;;;;;3.10;2.20;;;;;;;;;;104940;1302;25261;-28
2022/07/25 01:02:40;;;;;;;3.80;2.50;;;;;;;;;;104931;1309;25197;-24
2022/07/25 01:05:09;;;;;;;5.40;1.50;;;;;;;;;;104946;1309;25343;-24
2022/07/25 01:07:38;;;;;;;2.70;1.60;;;;;;;;;;104775;1302;25295;-25
2022/07/25 01:10:07;;;;;;;4.70;3.10;;;;;;;;;;104992;1305;25343;-24
2022/07/25 01:12:39;;;;;;;3.00;2.40;;;;;;;;;;104958;1305;22616;-25
2022/07/25 01:15:08;;;;;;;5.60;2.50;;;;;;;;;;105049;1302;22548;-28
2022/07/25 01:17:37;;;;;;;2.70;2.20;;;;;;;;;;104887;1305;24170;-24
2022/07/25 01:20:11;;;;;;;4.80;2.70;;;;;;;;;;104964;1309;25350;-25
2022/07/25 01:22:40;;;;;;;12.00;2.70;;;;;;;;;;104976;1305;25421;-23
2022/07/25 01:25:10;;;;;;;3.60;3.20;;;;;;;;;;105002;1309;25239;-29
2022/07/25 01:27:39;;;;;;;6.20;4.40;;;;;;;;;;104939;1305;25218;-25
2022/07/25 01:30:09;;;;;;;5.50;3.70;;;;;;;;;;104983;1305;25238;-30
2022/07/25 01:32:38;;;;;;;5.70;5.10;;;;;;;;;;104803;1305;24794;-24
2022/07/25 01:35:07;;;;;;;7.60;4.50;;;;;;;;;;104944;1307;25181;-26
2022/07/25 01:37:35;;;;;;;6.00;2.80;;;;;;;;;;104857;1303;25253;-24
2022/07/25 01:40:05;;;;;;;4.00;3.40;;;;;;;;;;104906;1302;22504;-24
2022/07/25 01:42:34;;;;;;;5.10;4.60;;;;;;;;;;104928;1302;22525;-26
2022/07/25 01:45:03;;;;;;;4.70;3.30;;;;;;;;;;104954;1309;22710;-28
2022/07/25 01:47:32;;;;;;;3.80;2.80;;;;;;;;;;104942;1309;25204;-24
2022/07/25 01:50:01;;;;;;;5.40;2.90;;;;;;;;;;105004;1309;25250;-28
2022/07/25 01:52:30;;;;;;;4.80;2.70;;;;;;;;;;104947;1309;24800;-28
2022/07/25 01:54:59;;;;;;;3.10;2.20;;;;;;;;;;105027;1309;22523;-24
2022/07/25 01:57:27;;;;;;;4.00;3.30;;;;;;;;;;104988;1309;22592;-24
2022/07/25 01:59:56;;;;;;;3.00;2.50;;;;;;;;;;104963;1309;25231;-24
2022/07/25 02:02:25;;;;;;;4.00;3.50;;;;;;;;;;105014;1309;22520;-24
2022/07/25 02:04:54;;;;;;;5.60;3.20;;;;;;;;;;104961;1302;22529;-24
2022/07/25 02:07:23;;;;;;;5.60;3.40;;;;;;;;;;104963;1309;22530;-25
2022/07/25 02:09:52;;;;;;;3.80;2.10;;;;;;;;;;104921;1302;22523;-24
2022/07/25 02:12:20;;;;;;;3.20;2.20;;;;;;;;;;104926;1308;22531;-27
2022/07/25 02:14:49;;;;;;;4.00;2.10;;;;;;;;;;104930;1307;22557;-28
2022/07/25 02:17:18;;;;;;;3.70;2.20;;;;;;;;;;104790;1309;25247;-24
2022/07/25 02:19:47;;;;;;;5.00;2.90;;;;;;;;;;104945;1305;22525;-28
2022/07/25 02:22:16;;;;;;;2.90;2.70;;;;;;;;;;104974;1309;24814;-28
2022/07/25 02:24:45;;;;;;;8.70;2.70;;;;;;;;;;104964;1303;22524;-24
2022/07/25 02:27:14;;;;;;;4.60;2.10;;;;;;;;;;104934;1309;25161;-24
2022/07/25 02:29:43;;;;;;;1.80;1.70;;;;;;;;;;104943;1305;22523;-24
2022/07/25 02:32:12;;;;;;;1.90;1.70;;;;;;;;;;105010;1309;25206;-25
2022/07/25 02:34:41;;;;;;;2.90;2.20;;;;;;;;;;105039;1302;25327;-25
2022/07/25 02:37:11;;;;;;;5.20;2.50;;;;;;;;;;104911;1309;25166;-29
2022/07/25 02:39:40;;;;;;;2.80;2.20;;;;;;;;;;104944;1302;22544;-28
2022/07/25 02:42:09;;;;;;;1.80;1.60;;;;;;;;;;104977;1309;22520;-24
2022/07/25 02:44:38;;;;;;;7.70;2.00;;;;;;;;;;104958;1308;25286;-28
2022/07/25 02:47:06;;;;;;;2.40;1.70;;;;;;;;;;104938;1309;22572;-27
2022/07/25 02:49:35;;;;;;;4.00;1.90;;;;;;;;;;104922;1309;25254;-22
2022/07/25 02:52:04;;;;;;;2.40;2.20;;;;;;;;;;104966;1305;25286;-26
2022/07/25 02:54:33;;;;;;;3.30;2.70;;;;;;;;;;104991;1309;22520;-27
2022/07/25 02:57:02;;;;;;;3.90;2.70;;;;;;;;;;104903;1309;22542;-26
2022/07/25 02:59:31;;;;;;;2.40;2.20;;;;;;;;;;104984;1302;24333;-24
2022/07/25 03:01:59;;;;;;;4.90;3.00;;;;;;;;;;104940;1309;25194;-24
2022/07/25 03:04:29;;;;;;;5.20;1.80;;;;;;;;;;104911;1302;22533;-26
2022/07/25 03:06:58;;;;;;;4.40;2.90;;;;;;;;;;104922;1309;25372;-23
2022/07/25 03:09:27;;;;;;;4.30;3.60;;;;;;;;;;104965;1308;24718;-24
2022/07/25 03:11:56;;;;;;;11.60;8.40;;;;;;;;;;104987;1309;22549;-27
2022/07/25 03:14:25;;;;;;;22.30;17.00;;;;;;;;;;104989;1305;22563;-23
2022/07/25 03:16:53;;;;;;;10.90;10.00;;;;;;;;;;104961;1309;22636;-24
2022/07/25 03:19:22;;;;;;;7.30;3.90;;;;;;;;;;104960;1305;25391;-26
2022/07/25 03:21:51;;;;;;;9.40;4.60;;;;;;;;;;104819;1309;25382;-24
2022/07/25 03:24:20;;;;;;;5.10;4.40;;;;;;;;;;104865;1286;22560;-28
2022/07/25 03:26:49;;;;;;;4.00;3.00;;;;;;;;;;105010;1309;24403;-24
2022/07/25 03:29:18;;;;;;;2.70;2.10;;;;;;;;;;104911;1308;25359;-23
2022/07/25 03:31:46;;;;;;;4.20;2.70;;;;;;;;;;104961;1309;22527;-24
2022/07/25 03:34:15;;;;;;;2.80;2.50;;;;;;;;;;104923;1309;22524;-26
2022/07/25 03:36:44;;;;;;;5.10;2.10;;;;;;;;;;104974;1309;25352;-30
2022/07/25 03:39:13;;;;;;;3.90;3.60;;;;;;;;;;104891;1309;25271;-30
2022/07/25 03:41:42;;;;;;;5.10;4.50;;;;;;;;;;104951;1309;22506;-27
2022/07/25 03:44:11;;;;;;;5.60;3.70;;;;;;;;;;104971;1308;22536;-28
2022/07/25 03:46:40;;;;;;;15.00;3.20;;;;;;;;;;104939;1309;22512;-24
2022/07/25 03:49:08;;;;;;;5.90;2.40;;;;;;;;;;104781;1303;25373;-27
2022/07/25 03:51:37;;;;;;;2.80;1.90;;;;;;;;;;104949;1309;25005;-24
2022/07/25 03:54:07;;;;;;;4.00;2.90;;;;;;;;;;104905;1308;25640;-24
2022/07/25 03:56:37;;;;;;;2.60;2.20;;;;;;;;;;104977;1303;22514;-28
2022/07/25 03:59:06;;;;;;;7.90;4.70;;;;;;;;;;104940;1308;22512;-28
2022/07/25 04:01:35;;;;;;;3.90;2.50;;;;;;;;;;104930;1309;25200;-28
2022/07/25 04:04:04;;;;;;;4.10;3.80;;;;;;;;;;104946;1302;22509;-28
2022/07/25 04:06:33;;;;;;;5.00;3.60;;;;;;;;;;104977;1309;24899;-28
2022/07/25 04:09:02;;;;;;;4.90;2.80;;;;;;;;;;104904;1309;22538;-24
2022/07/25 04:11:31;;;;;;;5.00;2.60;;;;;;;;;;104920;1309;25522;-24
2022/07/25 04:14:01;;;;;;;8.40;7.60;;;;;;;;;;105001;1303;22516;-23
2022/07/25 04:16:30;;;;;;;7.10;4.80;;;;;;;;;;104977;1309;25260;-25
2022/07/25 04:18:59;;;;;;;6.70;3.40;;;;;;;;;;104964;1303;22517;-24
2022/07/25 04:21:28;;;;;;;7.50;4.20;;;;;;;;;;104922;1308;22520;-28
2022/07/25 04:23:56;;;;;;;5.40;2.20;;;;;;;;;;105000;1308;22541;-26
2022/07/25 04:26:25;;;;;;;6.00;2.20;;;;;;;;;;104914;1302;25184;-30
2022/07/25 04:28:56;;;;;;;4.30;2.40;;;;;;;;;;104901;1309;25203;-25
2022/07/25 04:31:25;;;;;;;4.00;2.60;;;;;;;;;;104917;1308;25251;-30
2022/07/25 04:33:54;;;;;;;3.30;2.20;;;;;;;;;;104989;1309;24861;-24
2022/07/25 04:36:23;;;;;;;3.40;2.00;;;;;;;;;;104958;1309;25410;-24
2022/07/25 04:38:52;;;;;;;3.10;2.60;;;;;;;;;;104773;1309;24468;-24
2022/07/25 04:41:21;;;;;;;6.90;2.30;;;;;;;;;;104957;1305;25382;-28
2022/07/25 04:43:50;;;;;;;3.20;2.80;;;;;;;;;;104907;1305;25200;-29
2022/07/25 04:46:19;;;;;;;3.50;2.90;;;;;;;;;;104956;1309;22530;-24
2022/07/25 04:48:48;;;;;;;4.50;2.30;;;;;;;;;;104757;1305;25410;-24
2022/07/25 04:51:17;;;;;;;3.00;2.70;;;;;;;;;;104957;1309;26685;-24
2022/07/25 04:53:45;;;;;;;2.90;2.60;;;;;;;;;;104974;1302;24706;-28
2022/07/25 04:56:14;;;;;;;7.20;2.80;;;;;;;;;;105021;1310;25299;-25
2022/07/25 04:58:43;;;;;;;2.50;2.20;;;;;;;;;;105003;1303;24401;-28
2022/07/25 05:01:12;;;;;;;2.70;1.70;;;;;;;;;;104901;1309;25197;-23
2022/07/25 05:03:41;;;;;;;2.70;2.10;;;;;;;;;;104939;1306;22529;-24
2022/07/25 05:06:10;;;;;;;3.50;2.40;;;;;;;;;;104949;1309;24257;-25
2022/07/25 05:08:39;;;;;;;2.00;1.50;;;;;;;;;;104993;1308;25416;-29
2022/07/25 05:11:08;;;;;;;6.70;2.50;;;;;;;;;;105023;1309;25199;-30
2022/07/25 05:13:37;;;;;;;2.60;1.70;;;;;;;;;;104916;1308;22638;-31
2022/07/25 05:16:06;;;;;;;7.40;2.00;;;;;;;;;;104894;1309;25204;-31
2022/07/25 05:18:35;;;;;;;2.40;1.60;;;;;;;;;;104939;1309;25417;-31
2022/07/25 05:21:04;;;;;;;5.30;2.60;;;;;;;;;;104941;1309;25334;-25
2022/07/25 05:23:41;;;;;;;4.20;2.10;;;;;;;;;;104891;1308;25056;-29
2022/07/25 05:26:10;;;;;;;8.90;2.50;;;;;;;;;;105000;1302;25004;-25
2022/07/25 05:28:39;;;;;;;2.90;2.10;;;;;;;;;;104982;1309;24224;-29
2022/07/25 05:31:08;;;;;;;3.50;1.40;;;;;;;;;;104938;1309;25209;-31
2022/07/25 05:33:36;;;;;;;2.50;1.40;;;;;;;;;;104951;1302;22545;-29
2022/07/25 05:36:07;;;;;;;2.20;1.70;;;;;;;;;;104952;1309;24600;-27
2022/07/25 05:38:36;;;;;;;3.40;2.20;;;;;;;;;;105029;1306;22525;-25
2022/07/25 05:41:05;;;;;;;1.60;1.20;;;;;;;;;;104991;1309;22564;-28
2022/07/25 05:43:34;;;;;;;7.10;1.70;;;;;;;;;;104979;1309;22538;-24
2022/07/25 05:46:03;;;;;;;9.30;1.90;;;;;;;;;;104962;1309;25203;-25
2022/07/25 05:48:32;;;;;;;4.10;1.30;;;;;;;;;;104990;1309;25203;-25
2022/07/25 05:51:01;;;;;;;2.80;1.60;;;;;;;;;;104602;1309;507110;-24
2022/07/25 05:53:30;;;;;;;3.90;1.00;;;;;;;;;;104951;1305;22515;-28
2022/07/25 05:55:59;;;;;;;3.50;1.80;;;;;;;;;;105025;1309;24458;-24
2022/07/25 05:58:28;;;;;;;3.50;1.50;;;;;;;;;;104948;1302;25241;-26
2022/07/25 06:00:57;;;;;;;7.80;1.80;;;;;;;;;;104998;1309;22533;-25
2022/07/25 06:03:25;;;;;;;1.90;1.30;;;;;;;;;;104926;1305;22516;-29
2022/07/25 06:05:55;;;;;;;1.90;1.50;;;;;;;;;;105000;1309;22525;-29
2022/07/25 06:08:27;;;;;;;5.00;1.10;;;;;;;;;;105047;1302;25213;-29
2022/07/25 06:10:57;;;;;;;8.60;1.90;;;;;;;;;;105012;1302;25251;-27
2022/07/25 06:13:26;;;;;;;3.60;1.80;;;;;;;;;;104955;1305;22534;-24
2022/07/25 06:15:54;;;;;;;3.10;1.60;;;;;;;;;;104939;1309;22533;-28
2022/07/25 06:18:32;;;;;;;7.00;1.80;;;;;;;;;;104905;1309;25241;-23
2022/07/25 06:21:01;;;;;;;4.70;1.70;;;;;;;;;;104834;1309;25203;-27
2022/07/25 06:23:30;;;;;;;3.40;1.70;;;;;;;;;;105002;1302;25430;-26
2022/07/25 06:25:58;;;;;;;3.40;1.70;;;;;;;;;;104966;1306;22524;-30
2022/07/25 06:28:27;;;;;;;10.80;2.70;;;;;;;;;;104978;1296;25207;-28
2022/07/25 06:30:56;;;;;;;1.70;1.20;;;;;;;;;;105018;1309;25232;-31
2022/07/25 06:33:25;;;;;;;2.30;1.10;;;;;;;;;;105017;1305;22519;-25
2022/07/25 06:35:54;;;;;;;3.30;1.40;;;;;;;;;;104934;1309;22524;-26
2022/07/25 06:38:22;;;;;;;1.90;1.20;;;;;;;;;;104996;1302;22541;-29
2022/07/25 06:40:51;;;;;;;7.80;1.50;;;;;;;;;;104954;1309;25260;-24
2022/07/25 06:43:20;;;;;;;2.30;1.60;;;;;;;;;;104971;1302;22572;-29
2022/07/25 06:45:49;;;;;;;2.40;1.20;;;;;;;;;;105026;1309;22539;-29
2022/07/25 06:48:18;;;;;;;3.70;1.80;;;;;;;;;;104984;1304;22533;-29
2022/07/25 06:50:47;;;;;;;2.40;1.40;;;;;;;;;;104952;1308;24290;-28
2022/07/25 06:53:16;;;;;;;2.20;1.20;;;;;;;;;;105084;1302;22523;-28
2022/07/25 06:55:45;;;;;;;3.70;1.30;;;;;;;;;;104987;1309;25269;-28
2022/07/25 06:58:14;;;;;;;5.20;1.60;;;;;;;;;;104956;1302;22539;-27
2022/07/25 07:00:42;;;;;;;5.00;1.30;;;;;;;;;;104966;1309;22527;-28
2022/07/25 07:03:11;;;;;;;2.50;1.20;;;;;;;;;;105032;1302;25287;-25
2022/07/25 07:05:41;;;;;;;2.30;1.20;;;;;;;;;;104814;1308;24367;-25
2022/07/25 07:08:10;;;;;;;2.50;1.30;;;;;;;;;;104929;1302;24314;-30
2022/07/25 07:10:39;;;;;;;5.50;1.20;;;;;;;;;;105107;1308;22536;-27
2022/07/25 07:13:09;;;;;;;5.40;1.30;;;;;;;;;;105013;1303;25201;-25
2022/07/25 07:15:38;;;;;;;1.90;1.10;;;;;;;;;;105045;1305;25245;-29
2022/07/25 07:18:06;;;;;;;4.80;1.20;;;;;;;;;;104972;1305;22567;-29
2022/07/25 07:20:35;;;;;;;3.70;1.10;;;;;;;;;;104922;1309;22524;-25
2022/07/25 07:23:04;;;;;;;2.80;1.40;;;;;;;;;;104971;1305;25254;-25
2022/07/25 07:25:33;;;;;;;15.30;1.40;;;;;;;;;;104972;1309;22714;-29
2022/07/25 07:28:02;;;;;;;2.70;1.10;;;;;;;;;;105005;1302;22523;-29
2022/07/25 07:30:31;;;;;;;3.60;1.40;;;;;;;;;;104985;1309;25228;-25
2022/07/25 07:33:00;;;;;;;2.30;1.20;;;;;;;;;;104990;1305;25264;-26
2022/07/25 07:35:29;;;;;;;3.80;1.20;;;;;;;;;;104958;1309;25203;-26
2022/07/25 07:37:58;;;;;;;3.90;1.60;;;;;;;;;;104936;1302;22523;-26
2022/07/25 07:40:27;;;;;;;1.70;1.10;;;;;;;;;;105019;1309;25297;-26
2022/07/25 07:42:57;;;;;;;1.50;1.10;;;;;;;;;;105027;1305;22529;-28
2022/07/25 07:45:26;;;;;;;2.60;1.20;;;;;;;;;;104916;1302;22537;-28
2022/07/25 07:47:55;;;;;;;1.70;0.90;;;;;;;;;;104993;1309;22535;-28
2022/07/25 07:50:24;;;;;;;1.80;0.90;;;;;;;;;;104931;1309;24561;-25
2022/07/25 07:52:54;;;;;;;1.60;1.00;;;;;;;;;;104933;1303;22526;-28
2022/07/25 07:58:03;;;;;;;1.60;0.90;;;;;;;;;;105116;1302;22539;-29
2022/07/25 08:00:35;;;;;;;1.10;0.70;;;;;;;;;;105160;1308;25250;-28
2022/07/25 08:03:05;;;;;;;4.60;0.90;;;;;;;;;;105165;1302;25203;-28
2022/07/25 08:05:42;;;;;;;1.60;0.80;;;;;;;;;;104807;1305;22516;-27
2022/07/25 08:08:12;;;;;;;1.20;0.60;;;;;;;;;;105060;1308;25238;-24
2022/07/25 08:10:42;;;;;;;1.70;0.80;;;;;;;;;;105006;1305;25207;-24
2022/07/25 08:13:13;;;;;;;2.80;0.60;;;;;;;;;;105021;1302;22554;-29
2022/07/25 08:15:42;;;;;;;1.00;0.60;;;;;;;;;;105046;1301;22534;-28
2022/07/25 08:18:11;;;;;;;4.00;0.90;;;;;;;;;;105034;1302;22520;-29
2022/07/25 08:20:40;;;;;;;1.40;0.80;;;;;;;;;;105019;1308;23000;-25
2022/07/25 08:23:10;;;;;;;5.20;0.50;;;;;;;;;;105074;1302;25350;-25
2022/07/25 08:25:39;;;;;;;5.50;1.10;;;;;;;;;;105161;1302;22456;-30
2022/07/25 08:28:08;;;;;;;1.70;0.60;;;;;;;;;;105083;1302;22516;-25
2022/07/25 08:30:37;;;;;;;1.10;0.60;;;;;;;;;;105002;1308;25404;-29
2022/07/25 08:33:08;;;;;;;1.80;0.40;;;;;;;;;;105135;1302;25168;-29
2022/07/25 08:35:38;;;;;;;3.40;0.70;;;;;;;;;;104997;1305;22513;-25
2022/07/25 08:38:10;;;;;;;2.30;0.90;;;;;;;;;;105056;1302;22513;-28
2022/07/25 08:40:39;;;;;;;1.10;0.50;;;;;;;;;;105144;1302;25206;-25
2022/07/25 08:43:09;;;;;;;0.50;0.40;;;;;;;;;;105173;1302;25414;-26
2022/07/25 08:45:40;;;;;;;0.70;0.60;;;;;;;;;;105070;1308;22622;-25
2022/07/25 08:48:09;;;;;;;1.40;0.60;;;;;;;;;;105142;1302;25304;-29
2022/07/25 08:50:38;;;;;;;1.60;0.60;;;;;;;;;;105105;1308;22560;-25
2022/07/25 08:53:07;;;;;;;0.60;0.40;;;;;;;;;;105006;1302;22530;-25
2022/07/25 08:55:36;;;;;;;1.80;0.60;;;;;;;;;;105150;1308;24522;-29
2022/07/25 08:58:05;;;;;;;1.20;0.80;;;;;;;;;;104933;1302;25276;-29
2022/07/25 09:00:34;;;;;;;0.70;0.40;;;;;;;;;;105016;1308;22557;-25
2022/07/25 09:03:05;;;;;;;0.80;0.40;;;;;;;;;;105094;1302;25199;-26
2022/07/25 09:05:34;;;;;;;0.90;0.60;;;;;;;;;;105101;1302;22635;-24
2022/07/25 09:08:06;;;;;;;3.20;0.90;;;;;;;;;;105068;1302;22504;-24
2022/07/25 09:10:35;;;;;;;8.10;0.80;;;;;;;;;;104993;1302;25222;-28
2022/07/25 09:13:06;;;;;;;1.20;0.60;;;;;;;;;;104991;1302;25277;-28
2022/07/25 09:15:36;;;;;;;0.70;0.50;;;;;;;;;;105187;1302;22523;-30
2022/07/25 09:18:06;;;;;;;0.70;0.50;;;;;;;;;;104998;1306;25143;-33
2022/07/25 09:20:36;;;;;;;0.90;0.40;;;;;;;;;;105109;1308;22619;-25
2022/07/25 09:23:05;;;;;;;2.00;0.40;;;;;;;;;;105176;1302;25219;-28
2022/07/25 09:25:34;;;;;;;0.50;0.40;;;;;;;;;;105048;1308;25236;-28
2022/07/25 09:28:06;;;;;;;4.50;0.70;;;;;;;;;;104958;1303;24718;-24
2022/07/25 09:30:35;;;;;;;0.80;0.60;;;;;;;;;;105128;1302;24567;-29
2022/07/25 09:33:05;;;;;;;0.20;0.20;;;;;;;;;;105047;1302;25229;-28
2022/07/25 09:35:37;;;;;;;1.40;0.50;;;;;;;;;;104984;1308;22529;-24
2022/07/25 09:38:07;;;;;;;0.60;0.30;;;;;;;;;;105029;1302;22530;-28
2022/07/25 09:40:36;;;;;;;5.80;0.60;;;;;;;;;;105074;1302;22565;-28
2022/07/25 09:43:05;;;;;;;1.40;0.90;;;;;;;;;;104977;1295;25379;-24
2022/07/25 09:45:35;;;;;;;1.90;0.70;;;;;;;;;;105033;1308;22542;-24
2022/07/25 09:48:04;;;;;;;2.20;1.00;;;;;;;;;;105210;1302;25241;-28
2022/07/25 09:50:33;;;;;;;1.00;0.70;;;;;;;;;;105028;1296;25203;-28
2022/07/25 09:53:02;;;;;;;0.60;0.40;;;;;;;;;;104979;1302;22516;-24
2022/07/25 09:55:31;;;;;;;0.60;0.40;;;;;;;;;;105108;1308;22519;-24
2022/07/25 09:57:59;;;;;;;0.90;0.50;;;;;;;;;;105064;1302;22518;-28
2022/07/25 10:00:28;;;;;;;2.40;0.80;;;;;;;;;;105113;1308;22512;-29
2022/07/25 10:03:01;;;;;;;2.00;0.60;;;;;;;;;;105117;1302;22523;-28
2022/07/25 10:05:46;;;;;;;0.40;0.30;;;;;;;;;;105035;1302;22520;-28
2022/07/25 10:08:15;;;;;;;0.50;0.40;;;;;;;;;;105060;1302;25209;-28
2022/07/25 10:10:53;;;;;;;1.60;0.60;;;;;;;;;;105210;1308;22552;-27
2022/07/25 10:13:25;;;;;;;0.50;0.30;;;;;;;;;;105138;1302;22548;-24
2022/07/25 10:15:54;;;;;;;1.00;0.50;;;;;;;;;;105010;1302;22581;-25
2022/07/25 10:18:24;;;;;;;2.40;0.70;;;;;;;;;;105063;1302;25235;-24
2022/07/25 10:20:53;;;;;;;2.20;0.60;;;;;;;;;;105156;1308;25203;-26
2022/07/25 10:23:23;;;;;;;1.20;0.70;;;;;;;;;;105013;1302;24484;-24
2022/07/25 10:25:56;;;;;;;0.90;0.60;;;;;;;;;;105147;1302;25286;-29
2022/07/25 10:28:33;;;;;;;3.30;0.50;;;;;;;;;;104991;1302;22525;-24
2022/07/25 10:31:02;;;;;;;0.70;0.60;;;;;;;;;;105098;1308;22516;-26
2022/07/25 10:33:39;;;;;;;1.00;0.60;;;;;;;;;;105127;1301;22519;-24
2022/07/25 10:36:09;;;;;;;1.70;0.60;;;;;;;;;;105032;1308;22529;-25
2022/07/25 10:38:49;;;;;;;2.50;0.80;;;;;;;;;;105037;1308;25347;-24
2022/07/25 10:41:18;;;;;;;0.30;0.30;;;;;;;;;;105082;1302;25207;-28
2022/07/25 10:43:49;;;;;;;1.50;0.60;;;;;;;;;;105120;1302;22534;-29
2022/07/25 10:46:18;;;;;;;0.30;0.30;;;;;;;;;;105024;1302;25298;-24
2022/07/25 10:48:59;;;;;;;1.20;0.60;;;;;;;;;;105060;1308;22566;-28
2022/07/25 10:51:36;;;;;;;0.90;0.40;;;;;;;;;;105041;1302;25358;-24
2022/07/25 10:54:14;;;;;;;1.40;0.60;;;;;;;;;;105065;1308;25363;-25
2022/07/25 10:56:46;;;;;;;0.70;0.40;;;;;;;;;;105065;1308;25206;-25
2022/07/25 10:59:23;;;;;;;1.10;0.60;;;;;;;;;;105158;1302;22530;-29
2022/07/25 11:01:52;;;;;;;0.70;0.20;;;;;;;;;;105065;1302;25244;-29
2022/07/25 11:04:21;;;;;;;0.40;0.40;;;;;;;;;;105194;1308;25202;-24
2022/07/25 11:06:50;;;;;;;0.30;0.30;;;;;;;;;;105008;1302;25177;-30
2022/07/25 11:09:20;;;;;;;1.60;0.30;;;;;;;;;;105161;1302;22520;-30
2022/07/25 11:11:50;;;;;;;0.90;0.60;;;;;;;;;;105105;1308;22511;-29
2022/07/25 11:14:21;;;;;;;2.80;0.40;;;;;;;;;;105018;1302;22568;-24
2022/07/25 11:16:51;;;;;;;1.00;0.60;;;;;;;;;;105117;1302;22520;-24
2022/07/25 11:19:19;;;;;;;0.50;0.50;;;;;;;;;;105119;1302;25200;-24
2022/07/25 11:21:49;;;;;;;0.60;0.40;;;;;;;;;;104964;1308;22533;-27
2022/07/25 11:24:18;;;;;;;0.60;0.40;;;;;;;;;;105195;1302;22540;-26
2022/07/25 11:26:48;;;;;;;0.60;0.50;;;;;;;;;;105072;1308;22559;-25
2022/07/25 11:29:19;;;;;;;0.20;0.20;;;;;;;;;;105124;1302;22525;-25
2022/07/25 11:31:50;;;;;;;0.40;0.30;;;;;;;;;;105055;1302;22530;-29
2022/07/25 11:34:28;;;;;;;0.40;0.30;;;;;;;;;;104281;1308;1003291;-25
2022/07/25 11:37:06;;;;;;;5.70;0.50;;;;;;;;;;105178;1302;25202;-26
2022/07/25 11:39:36;;;;;;;1.20;0.50;;;;;;;;;;104989;1308;25184;-25
2022/07/25 11:42:07;;;;;;;11.70;0.60;;;;;;;;;;105202;1308;25204;-25
2022/07/25 11:44:37;;;;;;;1.00;0.40;;;;;;;;;;105207;1302;25279;-27
2022/07/25 11:47:07;;;;;;;0.40;0.40;;;;;;;;;;105088;1301;22535;-29
2022/07/25 11:49:39;;;;;;;0.40;0.40;;;;;;;;;;105014;1302;25206;-25
2022/07/25 11:52:12;;;;;;;0.90;0.60;;;;;;;;;;105066;1301;22519;-25
2022/07/25 11:54:48;;;;;;;0.70;0.40;;;;;;;;;;105081;1302;24574;-25
2022/07/25 11:57:20;;;;;;;1.10;0.40;;;;;;;;;;105064;1308;25295;-29
2022/07/25 11:59:49;;;;;;;1.60;0.60;;;;;;;;;;105006;1302;22490;-25
2022/07/25 12:02:20;;;;;;;0.60;0.40;;;;;;;;;;105103;1308;25187;-25
2022/07/25 12:04:52;;;;;;;0.40;0.40;;;;;;;;;;105049;1302;25232;-30
2022/07/25 12:07:21;;;;;;;0.30;0.30;;;;;;;;;;105046;1302;22529;-29
2022/07/25 12:09:53;;;;;;;0.60;0.50;;;;;;;;;;105130;1300;25087;-26
2022/07/25 12:12:22;;;;;;;0.60;0.40;;;;;;;;;;104846;1305;22524;-23
2022/07/25 12:14:51;;;;;;;0.70;0.30;;;;;;;;;;105018;1302;22509;-28
2022/07/25 12:17:20;;;;;;;0.40;0.30;;;;;;;;;;104972;1296;25255;-28
2022/07/25 12:19:49;;;;;;;0.70;0.50;;;;;;;;;;105186;1302;25205;-28
2022/07/25 12:22:17;;;;;;;0.60;0.40;;;;;;;;;;105004;1308;22520;-24
2022/07/25 12:24:46;;;;;;;1.50;0.40;;;;;;;;;;105017;1302;22520;-24
2022/07/25 12:27:15;;;;;;;0.60;0.50;;;;;;;;;;104861;1308;22457;-28
2022/07/25 12:29:44;;;;;;;0.80;0.50;;;;;;;;;;105015;1301;25186;-28
2022/07/25 12:32:13;;;;;;;2.00;0.50;;;;;;;;;;104947;1302;24436;-24
2022/07/25 12:34:42;;;;;;;0.40;0.30;;;;;;;;;;105063;1302;22538;-24
2022/07/25 12:37:11;;;;;;;0.50;0.40;;;;;;;;;;105020;1295;25229;-29
2022/07/25 12:39:40;;;;;;;0.70;0.40;;;;;;;;;;105034;1293;25251;-24
2022/07/25 12:42:18;;;;;;;4.10;0.70;;;;;;;;;;105006;1308;22530;-28
2022/07/25 12:44:55;;;;;;;1.00;0.60;;;;;;;;;;105079;1302;25356;-25
2022/07/25 12:47:32;;;;;;;0.60;0.40;;;;;;;;;;105086;1302;24387;-25
2022/07/25 12:50:10;;;;;;;0.70;0.60;;;;;;;;;;105017;1308;25273;-25
2022/07/25 12:52:39;;;;;;;0.60;0.40;;;;;;;;;;105031;1302;22522;-29
2022/07/25 12:55:09;;;;;;;0.40;0.40;;;;;;;;;;104959;1302;24410;-29
2022/07/25 12:57:38;;;;;;;0.50;0.40;;;;;;;;;;104948;1286;25308;-24
2022/07/25 13:00:08;;;;;;;0.60;0.50;;;;;;;;;;105030;1308;22562;-24
2022/07/25 13:02:37;;;;;;;1.50;0.50;;;;;;;;;;105047;1295;24557;-28
2022/07/25 13:05:06;;;;;;;1.10;0.50;;;;;;;;;;105065;1302;22516;-28
2022/07/25 13:07:35;;;;;;;13.50;0.60;;;;;;;;;;104979;1302;25237;-24
2022/07/25 13:10:04;;;;;;;0.30;0.30;;;;;;;;;;105088;1308;25220;-28
2022/07/25 13:12:33;;;;;;;1.50;0.50;;;;;;;;;;105077;1308;25232;-28
2022/07/25 13:15:02;;;;;;;5.60;0.50;;;;;;;;;;105217;1308;22523;-28
2022/07/25 13:17:31;;;;;;;0.40;0.20;;;;;;;;;;105049;1302;25254;-24
2022/07/25 13:20:00;;;;;;;0.70;0.60;;;;;;;;;;105244;1308;22523;-25
2022/07/25 13:22:29;;;;;;;1.50;0.50;;;;;;;;;;105166;1302;22508;-28
2022/07/25 13:24:58;;;;;;;1.70;0.50;;;;;;;;;;105127;1308;22522;-28
2022/07/25 13:27:26;;;;;;;0.50;0.50;;;;;;;;;;105201;1308;24762;-25
2022/07/25 13:29:56;;;;;;;1.40;0.40;;;;;;;;;;104960;1308;25233;-24
2022/07/25 13:32:27;;;;;;;0.50;0.40;;;;;;;;;;105045;1308;22533;-25
2022/07/25 13:35:04;;;;;;;0.40;0.40;;;;;;;;;;104920;1308;24536;-28
2022/07/25 13:37:42;;;;;;;0.50;0.40;;;;;;;;;;104986;1308;25353;-25
2022/07/25 13:40:19;;;;;;;0.60;0.60;;;;;;;;;;105183;1308;25311;-28
2022/07/25 13:42:48;;;;;;;1.80;0.80;;;;;;;;;;105060;1302;25289;-24
2022/07/25 13:45:17;;;;;;;1.30;0.50;;;;;;;;;;105172;1308;25368;-24
2022/07/25 13:47:46;;;;;;;1.10;0.70;;;;;;;;;;105151;1302;24525;-24
2022/07/25 13:50:15;;;;;;;3.70;0.40;;;;;;;;;;105081;1305;22539;-24
2022/07/25 13:52:44;;;;;;;0.60;0.60;;;;;;;;;;104573;1305;346211;-28
2022/07/25 13:55:13;;;;;;;2.30;0.40;;;;;;;;;;105162;1302;24582;-24
2022/07/25 13:57:42;;;;;;;0.40;0.40;;;;;;;;;;105117;1302;22503;-24
2022/07/25 14:00:11;;;;;;;1.50;0.60;;;;;;;;;;105013;1308;25252;-24
2022/07/25 14:02:39;;;;;;;0.40;0.40;;;;;;;;;;104920;1302;24810;-24
2022/07/25 14:05:08;;;;;;;0.80;0.50;;;;;;;;;;104970;1308;25349;-28
2022/07/25 14:07:37;;;;;;;2.40;0.60;;;;;;;;;;105047;1302;25313;-24
2022/07/25 14:10:07;;;;;;;0.80;0.50;;;;;;;;;;105165;1308;25203;-26
2022/07/25 14:12:38;;;;;;;1.50;0.50;;;;;;;;;;105062;1302;22622;-29
2022/07/25 14:15:07;;;;;;;1.50;0.50;;;;;;;;;;105138;1302;22513;-23
2022/07/25 14:17:37;;;;;;;1.90;0.60;;;;;;;;;;104894;1302;24884;-27
2022/07/25 14:20:06;;;;;;;0.90;0.60;;;;;;;;;;105042;1302;24469;-29
2022/07/25 14:22:35;;;;;;;1.50;0.50;;;;;;;;;;105085;1308;25296;-25
2022/07/25 14:25:05;;;;;;;1.10;0.60;;;;;;;;;;105031;1308;25464;-29
2022/07/25 14:27:34;;;;;;;0.50;0.40;;;;;;;;;;105028;1308;25348;-27
2022/07/25 14:30:03;;;;;;;0.80;0.60;;;;;;;;;;104804;1301;25316;-30
2022/07/25 14:32:32;;;;;;;0.60;0.50;;;;;;;;;;105028;1302;22525;-24
2022/07/25 14:35:01;;;;;;;1.70;0.60;;;;;;;;;;105168;1308;22505;-24
2022/07/25 14:37:30;;;;;;;0.60;0.60;;;;;;;;;;105042;1302;22688;-28
2022/07/25 14:39:59;;;;;;;0.80;0.70;;;;;;;;;;105248;1304;25206;-28
2022/07/25 14:42:28;;;;;;;5.80;0.50;;;;;;;;;;104266;1308;1003205;-24
2022/07/25 14:44:57;;;;;;;2.60;1.30;;;;;;;;;;105190;1308;22464;-25